Date,TemperatureHighF,TemperatureAvgF,TemperatureLowF,DewpointHighF,DewpointAvgF,DewpointLowF,HumidityHigh,HumidityAvg,HumidityLow,PressureMaxIn,PressureMinIn,WindSpeedMaxMPH,WindSpeedAvgMPH,GustSpeedMaxMPH,PrecipitationSumIn
2013-2-12,35,33,31,30,27,24,90,77,65,29.93,29.71,22,11,36,0.04
2013-2-13,39,33,30,26,23,20,82,68,50,29.88,29.70,6,2,17,0.00
2013-2-14,42,38,35,33,29,24,92,71,51,29.84,29.79,6,2,12,0.07
2013-2-15,40,36,27,34,27,19,92,69,57,30.01,29.76,14,7,25,0.08
2013-2-16,28,24,18,21,15,10,88,69,50,30.02,29.88,11,3,17,0.00
2013-2-17,18,14,11,11,8,4,89,76,63,30.06,29.84,25,8,38,0.00
2013-2-18,29,18,11,15,11,7,89,76,50,30.25,29.99,13,3,22,0.00
2013-2-19,40,31,20,34,24,13,92,77,52,29.99,29.55,17,5,32,0.27
2013-2-20,28,23,21,20,15,11,89,71,58,29.95,29.71,24,14,40,0.01
2013-2-21,21,17,13,17,13,9,91,86,75,30.38,29.93,19,11,33,0.00
2013-2-22,37,28,16,27,21,14,93,78,57,30.38,30.04,9,2,19,0.00
2013-2-23,36,35,33,34,31,25,96,87,70,30.05,29.84,9,1,17,0.07
2013-2-24,33,31,29,30,27,24,94,84,73,29.98,29.82,14,6,25,0.01
2013-2-25,38,33,29,31,28,26,93,82,65,30.22,29.98,14,6,20,0.00
2013-2-26,46,35,22,31,26,20,94,73,48,30.23,29.87,10,3,19,0.18
2013-2-27,41,36,32,36,33,30,95,90,80,29.90,29.53,6,2,16,0.85
2013-2-28,40,36,33,34,33,31,95,89,76,29.65,29.52,10,3,15,0.25
2013-3-1,33,31,26,31,28,24,97,91,83,29.86,29.65,12,7,22,0.01
2013-3-2,27,24,22,25,21,17,93,87,82,29.87,29.82,13,6,21,0.00
2013-3-3,25,22,20,21,18,16,92,83,75,29.83,29.78,15,6,25,0.00
2013-3-4,29,25,23,24,21,19,89,82,73,29.97,29.81,22,12,35,0.00
2013-3-5,35,28,23,26,23,21,91,83,69,30.07,29.97,12,3,20,0.00
2013-3-6,43,34,22,32,26,20,92,76,60,30.10,29.96,5,1,13,0.00
2013-3-7,41,35,28,27,25,23,93,66,53,30.21,30.09,8,2,16,0.00
2013-3-8,38,32,27,27,26,23,95,79,58,30.35,30.19,13,5,30,0.06
2013-3-9,48,36,27,33,27,23,96,74,43,30.38,30.25,6,1,10,0.02
2013-3-10,58,46,28,28,24,20,85,49,25,30.25,30.01,7,3,16,0.00